Time;durP1;ratioP1;P1;durP2;ratioP2;P2;SDS_P1;SDS_P2;PMS_P1;PMS_P2;Temp;Humidity;BMP_temperature;BMP_pressure;BME280_temperature;BME280_humidity;BME280_pressure;Samples;Min_cycle;Max_cycle;Signal;HPM_P1;HPM_P2
2022/04/06 00:00:43;;;;;;;216.30;98.60;;;;;;;23.09;79.67;98351.31;4781522;29;20059;-68
2022/04/06 00:03:32;;;;;;;231.15;101.32;;;;;;;23.02;80.37;98352.81;4781453;29;20544;-69
2022/04/06 00:06:15;;;;;;;220.73;99.25;;;;;;;23.06;84.19;98363.91;4783306;29;20079;-68
2022/04/06 00:09:24;;;;;;;214.38;95.20;;;;;;;23.03;82.55;98367.63;4789730;29;20055;-68
2022/04/06 00:12:13;;;;;;;197.65;93.55;;;;;;;23.09;85.69;98368.88;4790153;29;20685;-68
2022/04/06 00:15:07;;;;;;;207.45;96.35;;;;;;;23.09;86.27;98366.25;4789377;29;20059;-69
2022/04/06 00:17:49;;;;;;;212.45;97.20;;;;;;;23.08;87.20;98370.69;4789012;29;21000;-69
2022/04/06 00:20:38;;;;;;;206.80;95.32;;;;;;;23.09;86.69;98377.59;4774177;29;20440;-69
2022/04/06 00:23:20;;;;;;;199.27;93.30;;;;;;;23.13;89.09;98368.50;4782268;29;20112;-69
2022/04/06 00:26:09;;;;;;;200.38;91.38;;;;;;;23.04;89.46;98378.97;4784525;29;20640;-69
2022/04/06 00:28:51;;;;;;;210.45;92.43;;;;;;;22.96;88.83;98387.50;4782266;30;20432;-69
2022/04/06 00:31:40;;;;;;;214.27;96.32;;;;;;;22.79;86.96;98377.59;4780667;29;20103;-69
2022/04/06 00:37:29;;;;;;;226.38;97.68;;;;;;;22.67;87.14;98397.00;4789251;29;20847;-68
2022/04/06 00:40:19;;;;;;;205.48;95.93;;;;;;;22.71;90.81;98393.13;4781646;29;20051;-68
2022/04/06 00:43:09;;;;;;;210.77;97.43;;;;;;;22.66;89.06;98392.72;4790612;29;20661;-68
2022/04/06 00:45:58;;;;;;;209.45;95.90;;;;;;;22.58;88.58;98398.59;4789040;29;20051;-68
2022/04/06 00:48:40;;;;;;;209.05;95.35;;;;;;;22.72;94.02;98402.69;4781519;30;20153;-68
2022/04/06 00:51:29;;;;;;;213.75;93.63;;;;;;;22.77;94.25;98401.38;4780196;30;20115;-69
2022/04/06 00:54:15;;;;;;;213.88;96.10;;;;;;;22.83;90.93;98410.50;4781241;29;20085;-69
2022/04/06 00:57:04;;;;;;;227.47;97.70;;;;;;;22.88;94.52;98413.59;4763514;30;20071;-68
2022/04/06 00:59:47;;;;;;;214.77;102.35;;;;;;;22.86;94.81;98410.25;4763514;30;20044;-68
2022/04/06 01:02:36;;;;;;;223.48;108.78;;;;;;;22.82;92.33;98414.13;4778812;29;20059;-68
2022/04/06 01:05:18;;;;;;;243.43;108.70;;;;;;;22.75;88.49;98415.56;4780454;29;20054;-68
2022/04/06 01:08:07;;;;;;;230.70;107.38;;;;;;;22.83;93.10;98416.59;4767596;29;20055;-69
2022/04/06 01:10:49;;;;;;;216.82;103.28;;;;;;;22.90;93.21;98422.19;4785069;29;20062;-69
2022/04/06 01:13:38;;;;;;;218.50;100.15;;;;;;;22.92;94.29;98425.50;4781070;29;20047;-68
2022/04/06 01:16:27;;;;;;;214.40;100.28;;;;;;;23.11;92.56;98423.00;4784360;29;20059;-68
2022/04/06 01:19:09;;;;;;;213.70;99.40;;;;;;;23.17;92.24;98426.88;4792156;29;20058;-68
2022/04/06 01:21:58;;;;;;;214.23;100.88;;;;;;;23.25;93.72;98430.53;4780471;29;20055;-68
2022/04/06 01:24:48;;;;;;;207.43;102.07;;;;;;;23.25;94.26;98435.78;4763493;30;20059;-68
2022/04/06 01:27:37;;;;;;;215.30;102.25;;;;;;;23.27;93.50;98444.38;4772962;29;20068;-67
2022/04/06 01:30:26;;;;;;;226.18;105.28;;;;;;;23.25;94.70;98441.03;4781296;29;20062;-68
2022/04/06 01:33:08;;;;;;;221.27;104.93;;;;;;;23.20;91.79;98443.25;4780342;29;20149;-68
2022/04/06 01:35:57;;;;;;;254.65;112.03;;;;;;;23.31;91.03;98447.56;4792974;29;20058;-68
2022/04/06 01:38:51;;;;;;;223.95;111.93;;;;;;;23.32;90.96;98453.66;4788388;29;20055;-69
2022/04/06 01:41:40;;;;;;;245.27;110.80;;;;;;;23.33;89.38;98457.94;4780496;29;20065;-69
2022/04/06 01:44:22;;;;;;;241.90;111.93;;;;;;;23.48;95.38;98454.84;4781916;29;20055;-69
2022/04/06 01:47:14;;;;;;;240.48;113.53;;;;;;;23.63;93.72;98463.22;4780698;30;20439;-69
2022/04/06 01:53:05;;;;;;;245.77;114.38;;;;;;;23.76;94.48;98469.09;4779951;29;20513;-69
2022/04/06 01:55:46;;;;;;;240.10;117.05;;;;;;;23.87;93.05;98468.97;4765163;30;20047;-69
2022/04/06 01:58:35;;;;;;;277.38;126.07;;;;;;;23.92;89.49;98466.78;4775583;29;20051;-70
2022/04/06 02:01:16;;;;;;;290.52;128.35;;;;;;;24.10;87.27;98474.03;4779293;29;20340;-69
2022/04/06 02:04:22;;;;;;;283.95;133.07;;;;;;;24.15;83.45;98482.34;4767168;30;20494;-70
2022/04/06 02:06:58;;;;;;;278.08;129.82;;;;;;;24.30;86.44;98483.63;4779167;30;20059;-69
2022/04/06 02:09:46;;;;;;;264.85;128.77;;;;;;;24.49;83.22;98488.94;4779233;29;20086;-69
2022/04/06 02:12:35;;;;;;;292.55;130.98;;;;;;;24.70;82.03;98483.50;4782408;29;20058;-68
2022/04/06 02:15:17;;;;;;;289.85;128.93;;;;;;;24.96;74.77;98494.34;4783202;29;20079;-68
2022/04/06 02:18:06;;;;;;;308.77;134.65;;;;;;;25.28;76.42;98496.63;4782523;29;20086;-68
2022/04/06 02:20:48;;;;;;;282.33;133.63;;;;;;;25.47;81.40;98500.03;4789493;29;20064;-68
2022/04/06 02:23:37;;;;;;;307.85;138.15;;;;;;;25.72;80.76;98497.75;4784148;29;20175;-68
2022/04/06 02:26:19;;;;;;;300.58;137.82;;;;;;;25.87;81.20;98501.56;4782894;29;20116;-68
2022/04/06 02:29:08;;;;;;;307.13;144.27;;;;;;;26.04;80.60;98503.41;4781702;29;20466;-69
2022/04/06 02:32:00;;;;;;;310.50;148.48;;;;;;;26.25;73.72;98506.66;4783675;29;20054;-67
2022/04/06 02:34:48;;;;;;;313.25;150.35;;;;;;;26.41;70.79;98507.81;4797461;29;20051;-67
2022/04/06 02:37:30;;;;;;;312.70;146.40;;;;;;;26.67;72.17;98503.41;4787049;29;20043;-67
2022/04/06 02:40:21;;;;;;;309.25;148.30;;;;;;;26.86;74.86;98516.47;4777735;30;20063;-67
2022/04/06 02:43:03;;;;;;;325.45;150.15;;;;;;;27.05;71.15;98523.44;4772361;30;20151;-69
2022/04/06 02:45:52;;;;;;;301.77;152.75;;;;;;;27.09;66.21;98522.16;4765093;30;20060;-67
2022/04/06 02:48:34;;;;;;;344.55;161.18;;;;;;;27.15;63.66;98526.81;4765259;30;20082;-68
2022/04/06 02:51:23;;;;;;;341.63;164.40;;;;;;;27.16;63.78;98530.28;4765072;30;20142;-63
2022/04/06 02:54:05;;;;;;;314.25;155.27;;;;;;;27.27;70.48;98525.59;4764930;30;20062;-67
2022/04/06 02:56:55;;;;;;;336.80;158.70;;;;;;;27.23;66.65;98532.16;4765309;30;20132;-68
2022/04/06 02:59:39;;;;;;;324.45;162.93;;;;;;;27.38;65.62;98540.34;4764297;30;20436;-68
2022/04/06 03:02:28;;;;;;;309.17;160.00;;;;;;;27.52;67.68;98533.69;4760098;30;20055;-68
2022/04/06 03:05:10;;;;;;;364.90;171.02;;;;;;;27.48;60.43;98543.75;4746943;30;20067;-68
2022/04/06 03:07:59;;;;;;;394.58;188.77;;;;;;;27.53;59.96;98546.81;4763866;30;20077;-68
2022/04/06 03:10:41;;;;;;;403.48;195.43;;;;;;;27.66;57.85;98547.19;4772770;30;20047;-68
2022/04/06 03:13:30;;;;;;;366.98;182.38;;;;;;;27.83;62.60;98544.63;4780684;30;20059;-68
2022/04/06 03:16:13;;;;;;;402.23;192.77;;;;;;;27.93;59.54;98548.00;4772464;30;20043;-69
2022/04/06 03:19:03;;;;;;;397.00;196.27;;;;;;;28.04;58.78;98548.53;4750319;30;20476;-67
2022/04/06 03:21:44;;;;;;;338.38;179.20;;;;;;;28.21;69.78;98554.75;4764600;30;20051;-68
2022/04/06 03:24:33;;;;;;;393.45;204.65;;;;;;;28.31;61.81;98558.09;4761079;30;20048;-69
2022/04/06 03:27:15;;;;;;;403.88;207.25;;;;;;;28.50;59.84;98556.97;4766843;30;20054;-69
2022/04/06 03:30:04;;;;;;;406.75;207.93;;;;;;;28.73;66.89;98558.03;4762453;30;20064;-70
2022/04/06 03:32:59;;;;;;;391.85;203.57;;;;;;;28.78;65.68;98560.22;4775739;30;20075;-69
2022/04/06 03:35:38;;;;;;;398.08;202.85;;;;;;;28.89;71.89;98565.22;4770491;30;20082;-69
2022/04/06 03:38:33;;;;;;;350.65;191.35;;;;;;;28.91;72.62;98564.03;4775561;29;20054;-69
2022/04/06 03:41:10;;;;;;;368.20;186.63;;;;;;;29.01;67.27;98565.69;4780487;30;20066;-69
2022/04/06 03:43:59;;;;;;;;;;;;;;;29.19;71.23;98569.84;4781678;29;20078;-68
2022/04/06 03:46:46;;;;;;;338.17;175.25;;;;;;;29.25;67.16;98574.50;4781142;30;19929;-69
2022/04/06 03:49:42;;;;;;;340.30;171.77;;;;;;;29.40;63.77;98571.19;4780931;29;20389;-69
2022/04/06 03:52:17;;;;;;;303.30;161.57;;;;;;;29.50;66.02;98575.31;4780403;29;20055;-69
2022/04/06 03:55:15;;;;;;;298.17;162.40;;;;;;;29.64;68.36;98576.44;4781510;29;20074;-69
2022/04/06 03:57:50;;;;;;;288.67;153.20;;;;;;;29.67;68.13;98584.94;4780826;29;20063;-68
2022/04/06 04:00:44;;;;;;;233.70;117.82;;;;;;;29.78;60.19;98588.19;4765730;30;20056;-68
2022/04/06 04:03:25;;;;;;;169.35;85.00;;;;;;;29.94;43.98;98601.47;4781855;29;20051;-69
2022/04/06 04:06:14;;;;;;;145.82;74.50;;;;;;;30.25;51.37;98598.91;4782196;29;20055;-68
2022/04/06 04:08:56;;;;;;;151.38;78.43;;;;;;;30.53;53.79;98600.09;4781059;29;20055;-69
2022/04/06 04:11:51;;;;;;;178.35;90.32;;;;;;;30.86;54.91;98602.56;4781442;29;20071;-69
2022/04/06 04:14:27;;;;;;;177.43;88.05;;;;;;;31.17;54.37;98603.38;4781185;29;20051;-69
2022/04/06 04:17:22;;;;;;;157.63;80.78;;;;;;;31.50;54.64;98607.41;4780691;29;20051;-69
2022/04/06 04:19:58;;;;;;;136.55;75.40;;;;;;;31.50;58.80;98601.25;4790804;29;20089;-69
2022/04/06 04:22:52;;;;;;;162.98;81.68;;;;;;;31.62;53.37;98604.31;4790705;29;20074;-68
2022/04/06 04:25:28;;;;;;;161.88;83.47;;;;;;;31.80;57.25;98602.13;4799521;29;20047;-68
2022/04/06 04:28:22;;;;;;;146.70;81.90;;;;;;;31.98;55.61;98607.94;4782628;29;20535;-68
2022/04/06 04:30:57;;;;;;;165.27;85.63;;;;;;;32.13;54.36;98611.44;4784481;29;20070;-68
2022/04/06 04:33:52;;;;;;;159.38;87.63;;;;;;;32.37;54.73;98599.66;4784617;29;20063;-68
2022/04/06 04:36:28;;;;;;;155.77;85.55;;;;;;;32.61;54.41;98606.50;4781247;29;20071;-68
2022/04/06 04:39:23;;;;;;;191.68;89.97;;;;;;;32.68;46.02;98610.06;4780106;30;20065;-69
2022/04/06 04:41:59;;;;;;;173.63;79.63;;;;;;;33.49;43.59;98611.53;4787707;29;20127;-69
2022/04/06 04:44:46;;;;;;;125.72;64.50;;;;;;;33.83;40.50;98612.63;4785240;29;20119;-68
2022/04/06 04:47:34;;;;;;;92.22;40.38;;;;;;;34.15;36.54;98620.03;4786607;29;20613;-68
2022/04/06 04:50:19;;;;;;;86.25;35.53;;;;;;;34.40;33.11;98610.47;4787483;29;20062;-68
2022/04/06 04:53:08;;;;;;;75.22;37.13;;;;;;;34.96;37.80;98610.28;4780426;29;20063;-68
2022/04/06 04:55:49;;;;;;;73.32;34.50;;;;;;;35.48;38.29;98617.56;4777988;29;20061;-68
2022/04/06 04:58:38;;;;;;;59.42;28.20;;;;;;;35.40;31.90;98616.94;4790581;29;20536;-69
2022/04/06 05:01:20;;;;;;;58.17;28.45;;;;;;;35.56;30.55;98624.56;4795623;29;20065;-69
2022/04/06 05:04:09;;;;;;;64.47;26.55;;;;;;;35.78;31.50;98617.13;4796747;29;20142;-68
2022/04/06 05:06:58;;;;;;;56.85;23.52;;;;;;;36.12;35.72;98621.41;4791290;29;20112;-68
2022/04/06 05:09:47;;;;;;;58.88;22.75;;;;;;;36.14;29.42;98625.53;4780064;29;20110;-69
2022/04/06 05:12:36;;;;;;;53.67;24.55;;;;;;;35.92;28.01;98621.47;4812143;29;20051;-69
2022/04/06 05:15:18;;;;;;;55.13;24.92;;;;;;;36.51;31.69;98615.91;4797724;29;20061;-66
2022/04/06 05:18:07;;;;;;;59.95;29.00;;;;;;;36.46;31.66;98613.06;4780385;29;20158;-65
2022/04/06 05:20:50;;;;;;;46.47;25.20;;;;;;;36.62;30.96;98617.94;4787841;29;20055;-66
2022/04/06 05:23:37;;;;;;;48.42;26.35;;;;;;;36.49;28.17;98617.16;4785073;29;20058;-67
2022/04/06 05:26:19;;;;;;;53.90;26.17;;;;;;;36.58;29.42;98618.56;4784370;29;20094;-65
2022/04/06 05:29:07;;;;;;;51.78;27.65;;;;;;;36.47;28.36;98616.56;4788019;29;20063;-66
2022/04/06 05:31:49;;;;;;;55.40;25.70;;;;;;;36.61;28.46;98616.28;4765928;29;20047;-67
2022/04/06 05:34:43;;;;;;;49.15;24.98;;;;;;;36.55;29.50;98606.41;4786362;29;20051;-67
2022/04/06 05:37:25;;;;;;;48.58;24.63;;;;;;;36.48;30.63;98610.97;4796052;29;20089;-68
2022/04/06 05:40:14;;;;;;;46.35;20.45;;;;;;;36.56;28.64;98610.72;4786826;29;20074;-68
2022/04/06 05:42:57;;;;;;;40.67;18.90;;;;;;;36.53;28.22;98595.06;4782721;29;20047;-68
2022/04/06 05:45:44;;;;;;;48.28;19.40;;;;;;;36.50;30.00;98595.47;4783170;29;20055;-68
2022/04/06 05:48:26;;;;;;;45.15;21.83;;;;;;;36.61;30.11;98597.50;4790156;29;20055;-68
2022/04/06 05:51:14;;;;;;;56.60;21.75;;;;;;;36.71;29.19;98595.19;4794715;29;20399;-68
2022/04/06 05:53:56;;;;;;;55.67;22.07;;;;;;;36.98;29.56;98584.25;4790269;29;20134;-68
2022/04/06 05:56:45;;;;;;;48.08;21.77;;;;;;;36.67;31.96;98582.41;4784303;29;20123;-68
2022/04/06 05:59:27;;;;;;;49.50;22.33;;;;;;;36.71;28.72;98581.78;4784491;29;20059;-67
2022/04/06 06:02:16;;;;;;;56.25;24.83;;;;;;;36.66;29.22;98581.56;4784478;29;20492;-68
2022/04/06 06:05:12;;;;;;;62.33;28.40;;;;;;;36.64;30.16;98575.56;4804253;29;20065;-68
2022/04/06 06:07:48;;;;;;;68.35;27.95;;;;;;;36.77;29.47;98578.22;4801286;29;20051;-68
2022/04/06 06:10:38;;;;;;;55.30;25.77;;;;;;;36.90;30.18;98569.22;4791481;29;20119;-67
2022/04/06 06:13:19;;;;;;;59.60;26.35;;;;;;;36.97;31.04;98571.88;4800161;29;20462;-68
2022/04/06 06:16:08;;;;;;;53.35;23.10;;;;;;;36.87;28.69;98568.84;4785988;29;20058;-68
2022/04/06 06:18:50;;;;;;;48.13;21.70;;;;;;;36.96;30.65;98564.88;4793368;29;20721;-69
2022/04/06 06:21:45;;;;;;;45.35;21.00;;;;;;;36.91;34.05;98556.63;4787063;29;20511;-69
2022/04/06 06:24:24;;;;;;;61.28;25.27;;;;;;;36.97;32.76;98561.94;4790134;29;20420;-69
2022/04/06 06:27:19;;;;;;;62.60;26.70;;;;;;;36.59;30.35;98556.59;4791556;29;20051;-68
2022/04/06 06:30:09;;;;;;;64.63;27.02;;;;;;;36.75;33.96;98553.44;4789831;29;20046;-68
2022/04/06 06:32:50;;;;;;;61.92;26.63;;;;;;;36.90;36.71;98547.75;4788563;29;20119;-68
2022/04/06 06:35:39;;;;;;;56.35;24.02;;;;;;;36.91;33.42;98548.56;4785421;29;20078;-69
2022/04/06 06:38:22;;;;;;;49.55;24.83;;;;;;;37.06;33.45;98551.75;4794029;29;20066;-70
2022/04/06 06:41:11;;;;;;;52.42;24.35;;;;;;;37.09;33.28;98541.41;4791931;29;20074;-68
2022/04/06 06:44:01;;;;;;;53.70;25.15;;;;;;;36.98;30.16;98543.97;4791719;29;20058;-68
2022/04/06 06:46:42;;;;;;;;;;;;;;;36.92;31.11;98542.97;4793300;29;20082;-69
2022/04/06 06:49:31;;;;;;;53.63;21.67;;;;;;;36.92;31.26;98542.16;4792302;29;19925;-69
2022/04/06 06:52:14;;;;;;;32.75;15.52;;;;;;;36.99;29.69;98538.38;4772974;29;20047;-66
2022/04/06 06:55:04;;;;;;;39.97;13.23;;;;;;;36.94;27.67;98537.41;4782829;29;20086;-64
2022/04/06 06:57:45;;;;;;;30.35;13.55;;;;;;;37.07;31.17;98526.53;4790349;29;20134;-68
2022/04/06 07:00:34;;;;;;;49.63;17.13;;;;;;;37.03;27.94;98531.53;4790022;29;20139;-68
2022/04/06 07:03:16;;;;;;;36.67;15.65;;;;;;;37.11;30.78;98519.69;4791218;29;20044;-67
2022/04/06 07:06:05;;;;;;;29.50;14.02;;;;;;;37.27;33.76;98521.84;4783025;29;20055;-67
2022/04/06 07:08:54;;;;;;;46.33;18.52;;;;;;;37.07;32.24;98518.47;4789882;29;20055;-69
2022/04/06 07:11:49;;;;;;;41.42;18.77;;;;;;;37.03;34.95;98503.84;4789198;29;20058;-68
2022/04/06 07:14:26;;;;;;;39.05;17.05;;;;;;;36.83;31.60;98500.47;4795673;29;20061;-68
2022/04/06 07:17:17;;;;;;;60.40;20.17;;;;;;;36.70;32.05;98502.25;4783607;29;20515;-68
2022/04/06 07:19:59;;;;;;;39.78;17.42;;;;;;;36.69;31.21;98489.84;4789809;29;20067;-68
2022/04/06 07:22:48;;;;;;;54.83;21.08;;;;;;;36.56;28.00;98505.19;4787193;29;20065;-68
2022/04/06 07:25:30;;;;;;;51.85;22.73;;;;;;;36.68;32.77;98490.88;4787097;29;20584;-68
2022/04/06 07:28:19;;;;;;;56.22;22.55;;;;;;;36.80;33.84;98486.44;4786478;29;20062;-68
2022/04/06 07:31:02;;;;;;;42.85;19.95;;;;;;;36.76;35.05;98479.88;4790810;29;20058;-68
2022/04/06 07:33:56;;;;;;;40.83;18.25;;;;;;;36.65;28.05;98488.59;4785670;29;20071;-68
2022/04/06 07:36:35;;;;;;;45.50;18.23;;;;;;;36.66;28.68;98481.34;4786897;29;20532;-68
2022/04/06 07:39:30;;;;;;;48.13;18.60;;;;;;;36.68;28.97;98480.13;4455306;29;10000072;-67
2022/04/06 07:42:06;;;;;;;38.13;17.17;;;;;;;36.67;28.03;98475.81;4787340;29;20078;-67
2022/04/06 07:44:56;;;;;;;41.60;16.88;;;;;;;36.74;27.99;98468.50;4784702;29;20062;-66
2022/04/06 07:47:40;;;;;;;;;;;;;;;36.78;27.79;98466.22;4785807;29;20062;-67
2022/04/06 07:50:29;;;;;;;38.15;15.43;;;;;;;36.89;30.05;98467.34;4783251;29;20281;-67
2022/04/06 07:53:18;;;;;;;41.60;15.60;;;;;;;36.81;30.41;98460.41;4779118;30;20060;-68
2022/04/06 07:56:07;;;;;;;53.65;19.98;;;;;;;36.75;29.49;98459.41;4780150;30;20059;-68
2022/04/06 07:58:49;;;;;;;43.00;17.55;;;;;;;36.75;30.05;98459.41;4760822;30;20051;-67
2022/04/06 08:01:43;;;;;;;39.33;17.00;;;;;;;36.75;31.33;98448.69;4761715;30;20833;-67
2022/04/06 08:04:32;;;;;;;36.35;14.27;;;;;;;36.79;30.73;98449.06;4761928;30;20739;-66
2022/04/06 08:07:21;;;;;;;33.33;16.50;;;;;;;36.75;27.55;98446.00;4764902;29;20059;-65
2022/04/06 08:10:10;;;;;;;42.15;17.70;;;;;;;36.70;29.36;98437.78;4787565;29;20389;-65
2022/04/06 08:12:52;;;;;;;32.10;13.90;;;;;;;36.62;26.97;98424.59;4779960;30;20571;-65
2022/04/06 08:15:41;;;;;;;43.28;14.02;;;;;;;36.68;25.93;98430.97;4784460;29;20065;-65
2022/04/06 08:18:23;;;;;;;38.55;14.23;;;;;;;36.68;26.04;98429.13;4785530;29;20059;-66
2022/04/06 08:21:12;;;;;;;37.92;12.88;;;;;;;36.65;25.63;98434.88;4782962;29;20059;-66
2022/04/06 08:23:54;;;;;;;27.00;12.65;;;;;;;36.65;25.55;98418.78;4784966;29;20059;-65
2022/04/06 08:26:43;;;;;;;28.33;11.23;;;;;;;36.72;27.96;98413.38;4779363;29;20852;-68
2022/04/06 08:29:26;;;;;;;30.10;12.77;;;;;;;36.62;27.67;98411.16;4781580;29;20480;-66
2022/04/06 08:32:15;;;;;;;30.13;13.65;;;;;;;36.57;28.41;98410.16;4785206;29;20063;-65
2022/04/06 08:35:05;;;;;;;22.27;12.15;;;;;;;36.45;27.58;98399.31;4786412;29;20055;-66
2022/04/06 08:37:48;;;;;;;35.30;13.48;;;;;;;36.47;26.34;98408.00;4777385;29;20780;-67
2022/04/06 08:40:37;;;;;;;30.48;13.73;;;;;;;36.47;30.16;98389.19;4779100;29;20051;-65
2022/04/06 08:43:21;;;;;;;;;;;;;;;36.31;26.93;98387.88;4786342;29;20141;-66
2022/04/06 08:46:17;;;;;;;27.00;11.10;;;;;;;36.13;31.42;98381.56;4786351;29;20265;-65
2022/04/06 08:48:53;;;;;;;30.15;12.40;;;;;;;35.95;29.44;98375.06;4782419;29;20051;-66
2022/04/06 08:51:45;;;;;;;28.35;12.30;;;;;;;35.94;28.51;98370.75;4786492;29;20066;-67
2022/04/06 08:54:34;;;;;;;25.67;12.55;;;;;;;35.92;28.35;98367.44;4791751;29;20051;-66
2022/04/06 08:57:18;;;;;;;22.52;11.70;;;;;;;35.73;32.75;98351.47;4796701;29;20058;-66
2022/04/06 09:00:07;;;;;;;22.05;8.60;;;;;;;35.71;30.18;98354.38;4768843;29;20059;-65
2022/04/06 09:02:49;;;;;;;21.00;9.23;;;;;;;35.54;30.32;98354.00;4781857;29;20047;-66
2022/04/06 09:05:38;;;;;;;18.17;7.55;;;;;;;35.38;31.38;98351.00;4785619;29;20136;-66
2022/04/06 09:08:20;;;;;;;25.63;8.63;;;;;;;35.26;27.20;98343.63;4778654;29;20316;-66
2022/04/06 09:11:16;;;;;;;25.65;7.35;;;;;;;35.20;27.35;98332.91;4800101;29;20158;-67
2022/04/06 09:14:01;;;;;;;20.35;6.78;;;;;;;35.10;30.11;98330.66;4790502;29;20089;-65
2022/04/06 09:16:52;;;;;;;23.70;7.43;;;;;;;35.14;26.35;98331.88;4780542;29;20051;-65
2022/04/06 09:19:45;;;;;;;25.52;7.25;;;;;;;35.19;28.04;98326.72;4781378;29;20150;-64
2022/04/06 09:22:34;;;;;;;16.70;6.75;;;;;;;35.11;27.30;98326.97;4782947;29;20064;-66
2022/04/06 09:25:23;;;;;;;17.40;7.47;;;;;;;35.00;29.56;98322.25;4784065;29;20066;-65
2022/04/06 09:28:15;;;;;;;20.05;7.35;;;;;;;34.98;28.48;98320.81;4781808;29;20153;-66
2022/04/06 09:31:04;;;;;;;20.23;7.60;;;;;;;34.84;31.54;98307.47;4781612;29;20120;-66
2022/04/06 09:34:07;;;;;;;25.85;7.03;;;;;;;34.89;29.42;98306.81;4779010;29;20521;-67
2022/04/06 09:36:56;;;;;;;19.48;7.10;;;;;;;35.00;29.79;98300.81;4778942;29;20151;-66
2022/04/06 09:39:51;;;;;;;16.42;7.65;;;;;;;34.80;31.98;98294.72;4761148;30;20051;-66
2022/04/06 09:42:28;;;;;;;20.17;7.32;;;;;;;34.73;28.50;98294.72;4761096;30;20052;-66
2022/04/06 09:48:35;;;;;;;30.67;7.78;;;;;;;34.72;29.15;98292.22;4761832;30;20594;-66
2022/04/06 09:51:17;;;;;;;28.83;6.88;;;;;;;34.55;30.98;98287.31;4761289;30;20047;-67
2022/04/06 09:54:11;;;;;;;29.13;7.22;;;;;;;34.54;28.23;98283.00;4762247;30;20051;-66
2022/04/06 09:56:54;;;;;;;25.17;7.10;;;;;;;34.58;25.40;98285.22;4760316;30;20051;-66
2022/04/06 09:59:43;;;;;;;27.15;7.50;;;;;;;34.70;25.24;98283.59;4761698;30;20059;-66
2022/04/06 10:02:25;;;;;;;26.92;6.35;;;;;;;34.91;25.54;98283.34;4761844;30;20117;-66
2022/04/06 10:05:19;;;;;;;23.48;6.80;;;;;;;34.81;26.40;98277.59;4773232;30;20059;-66
2022/04/06 10:08:06;;;;;;;18.48;7.43;;;;;;;34.77;25.74;98271.84;4768161;30;20186;-66
2022/04/06 10:10:58;;;;;;;20.20;7.70;;;;;;;34.65;29.17;98264.63;4775381;29;20087;-65
2022/04/06 10:13:41;;;;;;;24.40;10.65;;;;;;;34.52;28.52;98260.13;4776405;29;20139;-67
2022/04/06 10:16:39;;;;;;;38.03;12.45;;;;;;;34.51;24.82;98259.31;4761900;29;20063;-67
2022/04/06 10:19:27;;;;;;;29.90;10.48;;;;;;;34.40;29.98;98254.59;4772994;29;20051;-66
2022/04/06 10:22:52;;;;;;;23.48;8.02;;;;;;;34.37;27.09;98247.00;4767831;29;20059;-66
2022/04/06 10:26:11;;;;;;;19.05;6.35;;;;;;;34.26;28.20;98236.09;4769995;30;20739;-66
2022/04/06 10:29:03;;;;;;;18.33;6.60;;;;;;;34.21;29.98;98236.69;4109741;29;10000749;-68
2022/04/06 10:31:46;;;;;;;18.30;7.82;;;;;;;34.17;27.56;98238.94;4762010;30;20051;-66
2022/04/06 10:34:39;;;;;;;20.08;7.82;;;;;;;34.10;28.49;98246.16;4753718;30;20325;-67
2022/04/06 10:37:26;;;;;;;20.17;8.05;;;;;;;34.11;28.64;98238.97;4768350;29;20109;-67
2022/04/06 10:40:15;;;;;;;17.08;7.25;;;;;;;34.15;29.44;98226.84;4789981;29;20046;-68
2022/04/06 10:43:04;;;;;;;23.08;7.05;;;;;;;34.04;28.75;98227.44;4789390;29;20050;-67
2022/04/06 10:45:55;;;;;;;19.75;7.32;;;;;;;34.06;26.13;98234.25;4786270;29;20398;-69
2022/04/06 10:48:36;;;;;;;32.13;9.05;;;;;;;34.14;27.51;98235.88;4783466;29;20126;-67
2022/04/06 10:51:33;;;;;;;24.92;8.82;;;;;;;34.22;26.52;98222.28;4780677;29;20421;-67
2022/04/06 10:54:23;;;;;;;21.27;8.05;;;;;;;34.17;27.53;98224.75;4783621;29;20424;-67
2022/04/06 10:57:05;;;;;;;17.48;7.43;;;;;;;34.10;27.04;98229.28;4784443;29;20134;-67
2022/04/06 11:00:21;;;;;;;19.90;7.93;;;;;;;34.23;26.25;98223.97;4785329;29;20511;-68
2022/04/06 11:03:18;;;;;;;35.75;10.68;;;;;;;34.25;23.73;98223.75;4785333;29;20054;-69
2022/04/06 11:06:07;;;;;;;22.15;10.65;;;;;;;34.20;26.28;98227.03;4785939;29;20055;-67
2022/04/06 11:12:16;;;;;;;26.08;8.00;;;;;;;34.10;28.14;98223.94;4785398;29;20142;-67
2022/04/06 11:15:01;;;;;;;26.02;7.85;;;;;;;34.07;27.68;98221.69;4782130;29;20059;-67
2022/04/06 11:17:49;;;;;;;29.80;10.07;;;;;;;34.03;27.97;98218.59;4779737;29;20568;-68
2022/04/06 11:20:33;;;;;;;21.33;8.55;;;;;;;34.01;26.06;98225.19;4783433;29;20063;-66
2022/04/06 11:23:22;;;;;;;23.35;8.55;;;;;;;33.95;26.88;98217.97;4796572;29;20066;-65
2022/04/06 11:26:04;;;;;;;27.27;9.23;;;;;;;33.92;27.93;98211.22;4785311;29;20594;-66
2022/04/06 11:29:07;;;;;;;22.05;8.45;;;;;;;33.80;28.91;98213.69;4783046;29;20052;-67
2022/04/06 11:32:07;;;;;;;23.73;8.60;;;;;;;33.77;29.67;98213.25;4804082;29;20057;-68
2022/04/06 11:34:56;;;;;;;27.00;8.55;;;;;;;33.70;29.76;98213.22;4789555;29;20074;-66
2022/04/06 11:37:48;;;;;;;23.10;7.90;;;;;;;33.74;26.21;98205.66;4787089;29;20071;-67
2022/04/06 11:40:43;;;;;;;31.80;10.23;;;;;;;33.77;28.62;98199.88;4790237;29;20055;-68
2022/04/06 11:43:19;;;;;;;25.42;8.50;;;;;;;33.64;30.39;98203.34;4787071;29;20055;-69
2022/04/06 11:46:09;;;;;;;29.98;8.13;;;;;;;33.48;30.97;98198.41;4788300;29;20063;-67
2022/04/06 11:48:50;;;;;;;30.00;7.40;;;;;;;33.68;26.98;98211.81;4783047;29;20572;-68
2022/04/06 11:51:39;;;;;;;28.40;7.82;;;;;;;33.62;27.36;98204.56;4787496;29;20059;-68
2022/04/06 11:54:22;;;;;;;26.02;8.25;;;;;;;33.59;27.01;98203.16;4788037;29;20051;-68
2022/04/06 11:57:11;;;;;;;20.85;7.47;;;;;;;33.44;28.53;98207.88;4788713;29;20054;-70
2022/04/06 12:00:03;;;;;;;27.27;8.23;;;;;;;33.25;31.59;98198.78;4793320;29;20079;-68
2022/04/06 12:02:57;;;;;;;22.00;7.32;;;;;;;33.04;30.44;98202.41;4791444;29;20078;-68
2022/04/06 12:05:53;;;;;;;26.50;8.85;;;;;;;32.86;33.21;98194.13;4786291;29;20108;-67
2022/04/06 12:08:38;;;;;;;31.50;10.68;;;;;;;32.85;29.34;98200.47;4786219;29;20055;-68
2022/04/06 12:11:26;;;;;;;33.72;12.40;;;;;;;32.73;31.91;98193.25;4783533;29;20444;-67
2022/04/06 12:14:15;;;;;;;35.25;11.25;;;;;;;32.56;32.39;98200.72;4779279;29;20079;-67
2022/04/06 12:16:57;;;;;;;33.88;10.88;;;;;;;32.51;33.46;98193.28;4785741;29;20131;-68
2022/04/06 12:19:46;;;;;;;25.92;9.32;;;;;;;32.47;31.32;98193.91;4788442;29;20116;-67
2022/04/06 12:22:35;;;;;;;33.40;9.23;;;;;;;32.42;32.13;98194.47;4789640;29;20449;-67
2022/04/06 12:25:28;;;;;;;24.15;9.10;;;;;;;32.34;31.70;98185.81;4785255;29;20769;-68
2022/04/06 12:28:23;;;;;;;37.72;10.40;;;;;;;32.24;31.97;98186.19;4785706;29;20051;-66
2022/04/06 12:31:07;;;;;;;27.17;9.63;;;;;;;32.14;32.56;98186.50;4785080;29;20058;-66
2022/04/06 12:33:57;;;;;;;32.22;9.43;;;;;;;32.11;29.93;98189.53;4786880;29;20055;-64
2022/04/06 12:36:49;;;;;;;28.80;10.63;;;;;;;32.10;31.01;98187.06;4794295;29;21225;-66
2022/04/06 12:39:54;;;;;;;25.35;10.55;;;;;;;32.03;31.81;98192.34;4780215;29;20062;-66
2022/04/06 12:42:43;;;;;;;40.25;10.20;;;;;;;31.99;30.88;98193.78;4779489;29;20473;-67
2022/04/06 12:45:32;;;;;;;36.03;11.48;;;;;;;31.96;32.20;98185.31;4778601;29;20059;-69
2022/04/06 12:48:20;;;;;;;27.15;9.60;;;;;;;31.89;30.57;98191.44;4775986;29;20314;-67
2022/04/06 12:51:28;;;;;;;23.38;10.15;;;;;;;31.87;31.48;98184.63;4776869;29;20131;-69
2022/04/06 12:54:12;;;;;;;25.02;9.90;;;;;;;31.87;30.73;98184.63;4777462;29;20055;-66
2022/04/06 12:57:18;;;;;;;27.52;10.45;;;;;;;31.78;30.55;98193.78;4779372;29;20047;-67
2022/04/06 13:00:09;;;;;;;34.30;10.13;;;;;;;31.70;30.86;98191.25;4779044;29;20055;-67